Va Bene — ZCIP8 — position and weather

sailwx.info

Track history (hours):
 
Tides and Currents Weather Stations Pressure Air Temp Water Temp Dewpoint Dewpoint Depression Visibility Wind Speed Wind Dir Waves Ship Positions

Va Bene

Last reported at 2016-May-26 14:13 UTC. Time now 2016-May-28 10:02 UTC.
Position N 43°44' E 007°25'.

Length 50 m; draft 3.6 m.

Type: Pleasure craft. MMSI: 319854000.

Date/timePositionNaut miles runAvg speedWind from/ knotsBaromVisibWave heightAir tempDewpointWater temp
2016-May-26 14:13N 43°44' E 007°25'0 0.0
2016-May-24 10:31N 43°44' E 007°25'0 0.0
2016-May-24 09:25N 43°44' E 007°25'0 0.0
2016-May-24 08:31N 43°44' E 007°25'0 0.0
2016-May-24 03:25N 43°44' E 007°25'1 0.0
2016-May-23 07:33N 43°43' E 007°25'0 0.0
2016-May-23 06:30N 43°43' E 007°25'0 0.0
2016-May-23 05:30N 43°43' E 007°25'0 0.0
2016-May-23 03:30N 43°43' E 007°25'0 0.0
2016-May-23 02:30N 43°43' E 007°25'0 0.0
2016-May-23 01:24N 43°43' E 007°25'0 0.0
2016-May-23 00:30N 43°43' E 007°25'0 0.0
2016-May-22 23:30N 43°43' E 007°25'0 0.0
2016-May-22 22:33N 43°43' E 007°25'0 0.0
2016-May-22 20:24N 43°43' E 007°25'0 0.0
2016-May-22 19:27N 43°43' E 007°25'0 0.0
2016-May-22 18:27N 43°43' E 007°25'0 0.0
2016-May-22 17:29N 43°43' E 007°25'2 1.6
2016-May-22 16:33N 43°45' E 007°26'0 0.0
2016-May-22 15:33N 43°45' E 007°26'1 0.8
2016-May-22 14:33N 43°44' E 007°26'0 0.0
2016-May-22 10:27N 43°44' E 007°25'  
2016-May-18 15:10N 43°44' E 007°25'4 7.0
2016-May-18 14:33N 43°41' E 007°22'1413.9
2016-May-18 13:33N 43°30' E 007°09'10513.2
2016-May-18 05:34N 42°13' E 005°32'14213.5
2016-May-17 19:04N 40°29' E 003°24'713.6
2016-May-17 18:33N 40°24' E 003°17'1413.7
2016-May-17 17:33N 40°14' E 003°06'1413.8
2016-May-17 16:33N 40°04' E 002°53'1414.1
2016-May-17 15:33N 39°54' E 002°41'1413.6
2016-May-17 14:33N 39°43' E 002°29'13 9.5
2016-May-17 13:08N 39°31' E 002°23'812.8
2016-May-17 12:33N 39°27' E 002°32'8 8.3
2016-May-17 11:33N 39°34' E 002°38'0 0.0
2016-May-17 10:33N 39°34' E 002°38'0 0.0
2016-May-17 09:33N 39°34' E 002°38'0 0.0
2016-May-17 08:33N 39°34' E 002°38'0 0.0
2016-May-17 07:33N 39°34' E 002°38'0 0.0
2016-May-17 06:33N 39°34' E 002°38'0 0.0
2016-May-17 05:30N 39°34' E 002°38'0 0.0
2016-May-17 04:33N 39°34' E 002°38'0 0.0
2016-May-17 03:33N 39°34' E 002°38'0 0.0
2016-May-17 02:30N 39°34' E 002°38'0 0.0
2016-May-17 01:33N 39°34' E 002°38'5 5.0
2016-May-17 00:33N 39°30' E 002°35'6 5.9
2016-May-16 23:33N 39°27' E 002°28'9 9.3
2016-May-16 22:33N 39°32' E 002°38'2 2.0
2016-May-16 21:32N 39°34' E 002°38'0 0.0
2016-May-16 20:32N 39°34' E 002°38'0 0.0
2016-May-16 19:32N 39°34' E 002°38'0 0.0
2016-May-16 18:32N 39°34' E 002°38'0 0.0
2016-May-16 17:32N 39°34' E 002°38'0 0.0
2016-May-16 16:32N 39°34' E 002°38'  
Track history (hours):
 
Tides and Currents Weather Stations Pressure Air Temp Water Temp Dewpoint Dewpoint Depression Visibility Wind Speed Wind Dir Waves Ship Positions

Va Bene

Last reported at 2016-May-26 14:13 UTC. Time now 2016-May-28 10:02 UTC.
Position N 43°44' E 007°25'.

Length 50 m; draft 3.6 m.

Type: Pleasure craft. MMSI: 319854000.

Date/timePositionNaut miles runAvg speedWind from/ knotsBaromVisibWave heightAir tempDewpointWater temp
2016-May-26 14:13N 43°44' E 007°25'0 0.0
2016-May-24 10:31N 43°44' E 007°25'0 0.0
2016-May-24 09:25N 43°44' E 007°25'0 0.0
2016-May-24 08:31N 43°44' E 007°25'0 0.0
2016-May-24 03:25N 43°44' E 007°25'1 0.0
2016-May-23 07:33N 43°43' E 007°25'0 0.0
2016-May-23 06:30N 43°43' E 007°25'0 0.0
2016-May-23 05:30N 43°43' E 007°25'0 0.0
2016-May-23 03:30N 43°43' E 007°25'0 0.0
2016-May-23 02:30N 43°43' E 007°25'0 0.0
2016-May-23 01:24N 43°43' E 007°25'0 0.0
2016-May-23 00:30N 43°43' E 007°25'0 0.0
2016-May-22 23:30N 43°43' E 007°25'0 0.0
2016-May-22 22:33N 43°43' E 007°25'0 0.0
2016-May-22 20:24N 43°43' E 007°25'0 0.0
2016-May-22 19:27N 43°43' E 007°25'0 0.0
2016-May-22 18:27N 43°43' E 007°25'0 0.0
2016-May-22 17:29N 43°43' E 007°25'2 1.6
2016-May-22 16:33N 43°45' E 007°26'0 0.0
2016-May-22 15:33N 43°45' E 007°26'1 0.8
2016-May-22 14:33N 43°44' E 007°26'0 0.0
2016-May-22 10:27N 43°44' E 007°25'  
2016-May-18 15:10N 43°44' E 007°25'4 7.0
2016-May-18 14:33N 43°41' E 007°22'1413.9
2016-May-18 13:33N 43°30' E 007°09'10513.2
2016-May-18 05:34N 42°13' E 005°32'14213.5
2016-May-17 19:04N 40°29' E 003°24'713.6
2016-May-17 18:33N 40°24' E 003°17'1413.7
2016-May-17 17:33N 40°14' E 003°06'1413.8
2016-May-17 16:33N 40°04' E 002°53'1414.1
2016-May-17 15:33N 39°54' E 002°41'1413.6
2016-May-17 14:33N 39°43' E 002°29'13 9.5
2016-May-17 13:08N 39°31' E 002°23'812.8
2016-May-17 12:33N 39°27' E 002°32'8 8.3
2016-May-17 11:33N 39°34' E 002°38'0 0.0
2016-May-17 10:33N 39°34' E 002°38'0 0.0
2016-May-17 09:33N 39°34' E 002°38'0 0.0
2016-May-17 08:33N 39°34' E 002°38'0 0.0
2016-May-17 07:33N 39°34' E 002°38'0 0.0
2016-May-17 06:33N 39°34' E 002°38'0 0.0
2016-May-17 05:30N 39°34' E 002°38'0 0.0
2016-May-17 04:33N 39°34' E 002°38'0 0.0
2016-May-17 03:33N 39°34' E 002°38'0 0.0
2016-May-17 02:30N 39°34' E 002°38'0 0.0
2016-May-17 01:33N 39°34' E 002°38'5 5.0
2016-May-17 00:33N 39°30' E 002°35'6 5.9
2016-May-16 23:33N 39°27' E 002°28'9 9.3
2016-May-16 22:33N 39°32' E 002°38'2 2.0
2016-May-16 21:32N 39°34' E 002°38'0 0.0
2016-May-16 20:32N 39°34' E 002°38'0 0.0
2016-May-16 19:32N 39°34' E 002°38'0 0.0
2016-May-16 18:32N 39°34' E 002°38'0 0.0
2016-May-16 17:32N 39°34' E 002°38'0 0.0
2016-May-16 16:32N 39°34' E 002°38'  

Dump ship's entire track history